Time;durP1;ratioP1;P1;durP2;ratioP2;P2;SDS_P1;SDS_P2;PMS_P1;PMS_P2;Temp;Humidity;BMP_temperature;BMP_pressure;BME280_temperature;BME280_humidity;BME280_pressure;Samples;Min_cycle;Max_cycle;Signal;HPM_P1;HPM_P2
2021/07/21 00:00:33;;;;;;;17.08;8.15;;;;;;;;;;5091817;28;20031;-50
2021/07/21 00:02:59;;;;;;;11.13;7.03;;;;;;;;;;5092218;28;20107;-50
2021/07/21 00:05:26;;;;;;;14.35;7.55;;;;;;;;;;5083738;28;20399;-51
2021/07/21 00:07:52;;;;;;;16.60;7.05;;;;;;;;;;5067900;28;20029;-50
2021/07/21 00:10:20;;;;;;;10.60;6.88;;;;;;;;;;5086618;28;20114;-50
2021/07/21 00:15:33;;;;;;;11.18;6.55;;;;;;;;;;5077455;28;20043;-50
2021/07/21 00:18:13;;;;;;;12.13;6.95;;;;;;;;;;5086158;28;20024;-51
2021/07/21 00:20:39;;;;;;;12.20;6.65;;;;;;;;;;5092131;28;20055;-52
2021/07/21 00:23:05;;;;;;;11.55;7.20;;;;;;;;;;5082327;28;20032;-50
2021/07/21 00:25:31;;;;;;;10.57;6.57;;;;;;;;;;5091925;28;20466;-49
2021/07/21 00:27:57;;;;;;;9.23;6.90;;;;;;;;;;5091200;28;20110;-49
2021/07/21 00:30:23;;;;;;;8.02;5.68;;;;;;;;;;5091478;28;20032;-51
2021/07/21 00:32:49;;;;;;;10.77;6.70;;;;;;;;;;5091182;28;20460;-50
2021/07/21 00:35:16;;;;;;;11.18;6.10;;;;;;;;;;5092000;28;20028;-50
2021/07/21 00:37:42;;;;;;;7.95;5.75;;;;;;;;;;5089348;28;20032;-49
2021/07/21 00:40:09;;;;;;;8.23;5.88;;;;;;;;;;5088541;28;20091;-50
2021/07/21 00:42:36;;;;;;;8.02;5.97;;;;;;;;;;5070782;28;20073;-52
2021/07/21 00:45:02;;;;;;;10.95;6.15;;;;;;;;;;5083320;28;20099;-51
2021/07/21 00:47:28;;;;;;;9.68;6.13;;;;;;;;;;5082611;28;20099;-50
2021/07/21 00:49:54;;;;;;;9.15;6.45;;;;;;;;;;5094105;28;20047;-52
2021/07/21 00:52:20;;;;;;;7.90;6.13;;;;;;;;;;5095344;28;20036;-49
2021/07/21 00:54:46;;;;;;;9.05;5.93;;;;;;;;;;5086442;28;20033;-50
2021/07/21 00:57:12;;;;;;;9.25;6.07;;;;;;;;;;5094023;28;20528;-50
2021/07/21 00:59:39;;;;;;;7.82;5.80;;;;;;;;;;5088474;28;20070;-50
2021/07/21 01:02:05;;;;;;;9.32;5.78;;;;;;;;;;5094501;28;20099;-50
2021/07/21 01:04:32;;;;;;;11.27;5.15;;;;;;;;;;5095285;28;20437;-49
2021/07/21 01:06:59;;;;;;;7.60;5.60;;;;;;;;;;5086098;28;20096;-49
2021/07/21 01:09:25;;;;;;;7.10;5.80;;;;;;;;;;5076794;28;20052;-50
2021/07/21 01:12:20;;;;;;;8.88;6.05;;;;;;;;;;5084039;28;20036;-51
2021/07/21 01:14:51;;;;;;;10.98;6.55;;;;;;;;;;5059394;28;20181;-50
2021/07/21 01:17:24;;;;;;;8.93;5.88;;;;;;;;;;5094980;28;20031;-51
2021/07/21 01:20:04;;;;;;;7.95;5.68;;;;;;;;;;5094324;28;20062;-49
2021/07/21 01:22:31;;;;;;;13.32;6.25;;;;;;;;;;5094686;28;20353;-49
2021/07/21 01:25:07;;;;;;;9.60;6.78;;;;;;;;;;5094402;28;20058;-49
2021/07/21 01:27:38;;;;;;;8.18;5.65;;;;;;;;;;5094712;28;20023;-50
2021/07/21 01:30:09;;;;;;;10.88;6.07;;;;;;;;;;5093979;28;20046;-50
2021/07/21 01:32:36;;;;;;;8.43;6.18;;;;;;;;;;5094604;28;20099;-50
2021/07/21 01:35:11;;;;;;;7.38;5.85;;;;;;;;;;5084441;28;20090;-53
2021/07/21 01:37:39;;;;;;;9.52;7.05;;;;;;;;;;5091806;28;20034;-50
2021/07/21 01:40:07;;;;;;;8.55;6.55;;;;;;;;;;5090877;28;20115;-50
2021/07/21 01:42:34;;;;;;;8.77;6.32;;;;;;;;;;5094315;28;20070;-50
2021/07/21 01:45:00;;;;;;;10.57;5.97;;;;;;;;;;5093989;28;20597;-51
2021/07/21 01:47:28;;;;;;;8.82;6.13;;;;;;;;;;5094247;28;20048;-50
2021/07/21 01:49:55;;;;;;;10.05;5.97;;;;;;;;;;5093606;28;20110;-53
2021/07/21 01:52:24;;;;;;;9.20;6.20;;;;;;;;;;5094099;28;20464;-50
2021/07/21 01:54:50;;;;;;;12.23;6.45;;;;;;;;;;5084503;28;20052;-50
2021/07/21 01:57:17;;;;;;;7.38;5.93;;;;;;;;;;5093334;28;20138;-49
2021/07/21 01:59:44;;;;;;;10.80;6.70;;;;;;;;;;5093123;28;20062;-50
2021/07/21 02:02:11;;;;;;;8.45;6.25;;;;;;;;;;5093206;28;20021;-51
2021/07/21 02:04:37;;;;;;;9.35;5.97;;;;;;;;;;5094095;28;20337;-49
2021/07/21 02:07:07;;;;;;;13.27;6.30;;;;;;;;;;5083858;28;20180;-49
2021/07/21 02:09:33;;;;;;;11.23;6.50;;;;;;;;;;5065436;28;20063;-50
2021/07/21 02:11:59;;;;;;;11.45;7.38;;;;;;;;;;5082433;28;20034;-50
2021/07/21 02:14:26;;;;;;;10.00;6.97;;;;;;;;;;5068626;28;20380;-50
2021/07/21 02:16:53;;;;;;;9.80;6.00;;;;;;;;;;5092673;28;20028;-51
2021/07/21 02:19:19;;;;;;;10.20;6.22;;;;;;;;;;5087308;28;20081;-53
2021/07/21 02:21:45;;;;;;;8.50;6.57;;;;;;;;;;5090984;28;20027;-50
2021/07/21 02:24:11;;;;;;;11.73;6.82;;;;;;;;;;5086798;28;20024;-50
2021/07/21 02:26:38;;;;;;;13.45;6.90;;;;;;;;;;5093203;28;20024;-53
2021/07/21 02:29:05;;;;;;;9.38;6.70;;;;;;;;;;5086821;28;20024;-50
2021/07/21 02:31:36;;;;;;;10.05;7.05;;;;;;;;;;5066898;28;20109;-50
2021/07/21 02:34:03;;;;;;;10.98;7.10;;;;;;;;;;5093203;28;20032;-50
2021/07/21 02:36:29;;;;;;;11.80;7.20;;;;;;;;;;5091644;28;20028;-50
2021/07/21 02:38:55;;;;;;;10.15;7.00;;;;;;;;;;5088176;28;20497;-51
2021/07/21 02:41:21;;;;;;;13.73;7.13;;;;;;;;;;5093454;28;20056;-50
2021/07/21 02:43:47;;;;;;;13.05;7.55;;;;;;;;;;5092802;28;20051;-50
2021/07/21 02:46:13;;;;;;;9.85;6.25;;;;;;;;;;5093204;28;20024;-49
2021/07/21 02:48:41;;;;;;;11.00;7.22;;;;;;;;;;5092344;28;20031;-50
2021/07/21 02:51:16;;;;;;;11.38;6.72;;;;;;;;;;5093242;28;20107;-50
2021/07/21 02:53:43;;;;;;;11.30;7.60;;;;;;;;;;5091728;28;20027;-51
2021/07/21 02:56:11;;;;;;;10.75;6.80;;;;;;;;;;5072939;28;20054;-50
2021/07/21 02:58:49;;;;;;;9.48;6.85;;;;;;;;;;5092182;28;20024;-51
2021/07/21 03:01:17;;;;;;;13.43;7.38;;;;;;;;;;5092799;28;20107;-51
2021/07/21 03:03:44;;;;;;;10.63;7.28;;;;;;;;;;5080759;28;20181;-51
2021/07/21 03:06:10;;;;;;;12.30;7.75;;;;;;;;;;5093026;28;20103;-49
2021/07/21 03:08:38;;;;;;;11.38;7.15;;;;;;;;;;5065301;28;20383;-51
2021/07/21 03:11:04;;;;;;;15.57;7.60;;;;;;;;;;5083911;28;20095;-49
2021/07/21 03:13:39;;;;;;;11.57;7.57;;;;;;;;;;5073002;28;20055;-52
2021/07/21 03:16:06;;;;;;;14.68;6.97;;;;;;;;;;5085870;28;20503;-50
2021/07/21 03:18:32;;;;;;;9.98;7.35;;;;;;;;;;5091863;28;20028;-50
2021/07/21 03:20:59;;;;;;;12.65;7.78;;;;;;;;;;5092581;28;20016;-51
2021/07/21 03:23:26;;;;;;;14.88;7.88;;;;;;;;;;5082182;28;20032;-53
2021/07/21 03:25:53;;;;;;;12.07;7.68;;;;;;;;;;5092302;28;20056;-50
2021/07/21 03:28:19;;;;;;;11.95;7.43;;;;;;;;;;5091965;28;20028;-54
2021/07/21 03:30:45;;;;;;;16.20;8.00;;;;;;;;;;5092237;28;20089;-49
2021/07/21 03:33:12;;;;;;;11.00;6.93;;;;;;;;;;5092090;28;20034;-50
2021/07/21 03:35:38;;;;;;;12.27;7.57;;;;;;;;;;5091148;28;20112;-50
2021/07/21 03:38:05;;;;;;;11.65;7.47;;;;;;;;;;5091338;28;20024;-49
2021/07/21 03:40:31;;;;;;;13.50;8.30;;;;;;;;;;5089376;28;20099;-50
2021/07/21 03:42:58;;;;;;;12.00;7.35;;;;;;;;;;5092265;28;20034;-50
2021/07/21 03:45:25;;;;;;;13.60;8.32;;;;;;;;;;5092239;28;20100;-52
2021/07/21 03:47:52;;;;;;;11.55;7.75;;;;;;;;;;5086757;28;20040;-51
2021/07/21 03:50:19;;;;;;;12.25;7.65;;;;;;;;;;5092105;28;20035;-50
2021/07/21 03:52:46;;;;;;;11.10;7.53;;;;;;;;;;5092052;28;20589;-50
2021/07/21 03:55:16;;;;;;;10.95;7.45;;;;;;;;;;5092140;28;20036;-50
2021/07/21 03:57:43;;;;;;;12.05;7.63;;;;;;;;;;5091661;28;20552;-50
2021/07/21 04:00:10;;;;;;;13.45;7.72;;;;;;;;;;5092024;28;20111;-49
2021/07/21 04:02:36;;;;;;;11.43;7.30;;;;;;;;;;5092178;28;20020;-52
2021/07/21 04:05:03;;;;;;;15.25;8.02;;;;;;;;;;5086817;28;20074;-50
2021/07/21 04:07:29;;;;;;;12.88;7.53;;;;;;;;;;5065153;28;20104;-54
2021/07/21 04:09:55;;;;;;;12.25;7.45;;;;;;;;;;5080458;28;20067;-50
2021/07/21 04:12:22;;;;;;;11.65;7.38;;;;;;;;;;5077002;28;20117;-50
2021/07/21 04:14:50;;;;;;;11.73;7.53;;;;;;;;;;5069359;28;20028;-49
2021/07/21 04:17:17;;;;;;;15.05;7.25;;;;;;;;;;5091976;28;20027;-52
2021/07/21 04:19:44;;;;;;;10.68;6.95;;;;;;;;;;5089786;28;20028;-51
2021/07/21 04:22:10;;;;;;;12.55;7.80;;;;;;;;;;5085780;28;20032;-50
2021/07/21 04:24:37;;;;;;;17.90;8.45;;;;;;;;;;5091080;28;20025;-50
2021/07/21 04:27:04;;;;;;;10.40;7.45;;;;;;;;;;5090086;28;20071;-50
2021/07/21 04:29:34;;;;;;;12.90;7.60;;;;;;;;;;5095391;28;20035;-50
2021/07/21 04:32:00;;;;;;;10.45;7.40;;;;;;;;;;5085169;28;20016;-49
2021/07/21 04:34:27;;;;;;;10.85;7.80;;;;;;;;;;5093026;28;20020;-50
2021/07/21 04:36:55;;;;;;;10.85;7.65;;;;;;;;;;5094142;28;20447;-50
2021/07/21 04:39:21;;;;;;;12.85;7.78;;;;;;;;;;5092077;28;20016;-52
2021/07/21 04:41:47;;;;;;;12.15;7.70;;;;;;;;;;5095891;28;20169;-50
2021/07/21 04:44:13;;;;;;;10.20;7.25;;;;;;;;;;5095406;28;20020;-50
2021/07/21 04:46:40;;;;;;;11.43;7.53;;;;;;;;;;5094975;28;20103;-50
2021/07/21 04:49:06;;;;;;;11.43;7.30;;;;;;;;;;5095003;28;20031;-49
2021/07/21 04:51:33;;;;;;;12.13;8.00;;;;;;;;;;5095429;28;20028;-50
2021/07/21 04:54:03;;;;;;;12.98;8.18;;;;;;;;;;5091882;28;20409;-50
2021/07/21 04:56:29;;;;;;;11.25;7.47;;;;;;;;;;5089034;28;20032;-50
2021/07/21 04:58:55;;;;;;;11.35;8.00;;;;;;;;;;5067828;28;20035;-50
2021/07/21 05:01:21;;;;;;;12.80;7.18;;;;;;;;;;5094968;28;20498;-50
2021/07/21 05:03:50;;;;;;;12.80;8.18;;;;;;;;;;5095175;28;20023;-50
2021/07/21 05:06:16;;;;;;;14.63;8.10;;;;;;;;;;5095191;28;20088;-52
2021/07/21 05:08:42;;;;;;;12.23;8.13;;;;;;;;;;5067521;28;20048;-50
2021/07/21 05:11:08;;;;;;;13.30;7.50;;;;;;;;;;5085919;28;20368;-49
2021/07/21 05:13:38;;;;;;;13.75;7.60;;;;;;;;;;5076471;28;20020;-50
2021/07/21 05:16:04;;;;;;;14.48;8.05;;;;;;;;;;5075638;28;20028;-51
2021/07/21 05:18:30;;;;;;;13.10;7.55;;;;;;;;;;5093950;28;20039;-52
2021/07/21 05:20:56;;;;;;;10.98;7.25;;;;;;;;;;5094645;28;20032;-50
2021/07/21 05:23:22;;;;;;;12.15;7.22;;;;;;;;;;5085469;28;20047;-49
2021/07/21 05:25:48;;;;;;;13.77;8.10;;;;;;;;;;5094586;28;20025;-53
2021/07/21 05:28:14;;;;;;;11.45;7.53;;;;;;;;;;5094542;28;20539;-50
2021/07/21 05:30:40;;;;;;;12.88;7.85;;;;;;;;;;5089233;28;20087;-50
2021/07/21 05:33:09;;;;;;;13.73;8.20;;;;;;;;;;5094372;28;20028;-50
2021/07/21 05:35:35;;;;;;;11.05;7.95;;;;;;;;;;5091601;28;20024;-51
2021/07/21 05:38:01;;;;;;;12.10;7.85;;;;;;;;;;5093997;28;20422;-51
2021/07/21 05:40:27;;;;;;;17.58;8.38;;;;;;;;;;5091297;28;20028;-50
2021/07/21 05:42:53;;;;;;;11.73;8.05;;;;;;;;;;5094128;28;20028;-50
2021/07/21 05:45:19;;;;;;;12.60;7.88;;;;;;;;;;5094038;28;20052;-50
2021/07/21 05:47:45;;;;;;;11.57;8.02;;;;;;;;;;5093697;28;20364;-50
2021/07/21 05:50:12;;;;;;;13.65;7.40;;;;;;;;;;5094091;28;20232;-50
2021/07/21 05:52:38;;;;;;;13.40;8.70;;;;;;;;;;5094311;28;20520;-51
2021/07/21 05:55:04;;;;;;;11.77;7.70;;;;;;;;;;5082721;28;20477;-51
2021/07/21 05:57:30;;;;;;;10.80;7.80;;;;;;;;;;5093935;28;20031;-50
2021/07/21 05:59:56;;;;;;;12.73;7.90;;;;;;;;;;5093445;28;20028;-50
2021/07/21 06:02:23;;;;;;;12.43;7.70;;;;;;;;;;5082148;28;20028;-50
2021/07/21 06:04:49;;;;;;;12.38;7.07;;;;;;;;;;5092736;28;20016;-51
2021/07/21 06:07:15;;;;;;;12.98;8.45;;;;;;;;;;5080275;28;20087;-50
2021/07/21 06:09:41;;;;;;;14.50;8.10;;;;;;;;;;5079923;28;20055;-53
2021/07/21 06:12:08;;;;;;;13.80;8.30;;;;;;;;;;5081738;28;20032;-50
2021/07/21 06:14:34;;;;;;;13.40;7.75;;;;;;;;;;5068837;28;20451;-50
2021/07/21 06:17:00;;;;;;;17.48;8.95;;;;;;;;;;5083436;28;20423;-49
2021/07/21 06:19:27;;;;;;;12.95;7.47;;;;;;;;;;5087310;28;20024;-51
2021/07/21 06:21:52;;;;;;;11.05;7.35;;;;;;;;;;5090135;28;20099;-50
2021/07/21 06:24:19;;;;;;;14.48;8.13;;;;;;;;;;5087702;28;20536;-50
2021/07/21 06:26:45;;;;;;;11.10;6.90;;;;;;;;;;5086659;28;20012;-49
2021/07/21 06:29:11;;;;;;;11.82;7.85;;;;;;;;;;5093227;28;20084;-50
2021/07/21 06:31:37;;;;;;;15.23;8.05;;;;;;;;;;5093537;28;20030;-51
2021/07/21 06:34:03;;;;;;;11.13;7.72;;;;;;;;;;5093081;28;20077;-50
2021/07/21 06:36:29;;;;;;;12.35;7.40;;;;;;;;;;5092320;28;20024;-50
2021/07/21 06:38:55;;;;;;;9.38;6.18;;;;;;;;;;5090039;28;20127;-49
2021/07/21 06:41:22;;;;;;;12.65;7.13;;;;;;;;;;5092860;28;20028;-50
2021/07/21 06:43:50;;;;;;;14.43;7.60;;;;;;;;;;5093226;28;20020;-50
2021/07/21 06:46:16;;;;;;;10.98;6.63;;;;;;;;;;5087880;28;20028;-50
2021/07/21 06:48:42;;;;;;;10.80;7.32;;;;;;;;;;5092634;28;20069;-50
2021/07/21 06:51:08;;;;;;;12.77;7.07;;;;;;;;;;5093143;28;20472;-50
2021/07/21 06:53:34;;;;;;;14.18;7.95;;;;;;;;;;5088096;28;20028;-50
2021/07/21 06:56:00;;;;;;;11.50;7.20;;;;;;;;;;5092731;28;20024;-50
2021/07/21 06:58:26;;;;;;;11.75;7.07;;;;;;;;;;5087711;28;20089;-48
2021/07/21 07:00:52;;;;;;;14.15;7.60;;;;;;;;;;5071127;28;20042;-48
2021/07/21 07:03:18;;;;;;;9.85;6.25;;;;;;;;;;5092683;28;20091;-48
2021/07/21 07:05:44;;;;;;;9.93;6.65;;;;;;;;;;5092740;28;20035;-48
2021/07/21 07:08:10;;;;;;;11.38;6.20;;;;;;;;;;5064680;28;20044;-49
2021/07/21 07:10:36;;;;;;;11.55;6.97;;;;;;;;;;5088007;28;20420;-48
2021/07/21 07:13:04;;;;;;;10.15;6.25;;;;;;;;;;5074869;28;20063;-48
2021/07/21 07:15:31;;;;;;;9.25;6.05;;;;;;;;;;5079474;28;20051;-48
2021/07/21 07:17:57;;;;;;;9.00;6.20;;;;;;;;;;5092016;28;20073;-48
2021/07/21 07:20:23;;;;;;;9.95;6.15;;;;;;;;;;5092776;28;20643;-48
2021/07/21 07:22:49;;;;;;;10.07;5.93;;;;;;;;;;5070138;28;20104;-50
2021/07/21 07:25:15;;;;;;;8.27;5.47;;;;;;;;;;5091106;28;20012;-48
2021/07/21 07:27:41;;;;;;;9.68;5.60;;;;;;;;;;5092112;28;20035;-51
2021/07/21 07:30:10;;;;;;;10.98;6.60;;;;;;;;;;5084875;28;20020;-48
2021/07/21 07:32:36;;;;;;;9.85;6.30;;;;;;;;;;5087616;28;20024;-49
2021/07/21 07:35:02;;;;;;;8.60;5.30;;;;;;;;;;5092179;28;20486;-49
2021/07/21 07:37:28;;;;;;;12.18;5.80;;;;;;;;;;5089811;28;20059;-48
2021/07/21 07:39:54;;;;;;;12.10;6.10;;;;;;;;;;5088189;28;20097;-49
2021/07/21 07:42:21;;;;;;;9.50;5.95;;;;;;;;;;5092312;28;20109;-49
2021/07/21 07:44:47;;;;;;;9.88;6.10;;;;;;;;;;5092206;28;20035;-48
2021/07/21 07:47:13;;;;;;;7.63;5.60;;;;;;;;;;5085302;28;20024;-50
2021/07/21 07:49:39;;;;;;;10.65;5.57;;;;;;;;;;5091665;28;20565;-48
2021/07/21 07:52:05;;;;;;;8.07;5.32;;;;;;;;;;5091936;28;20024;-49
2021/07/21 07:54:31;;;;;;;9.07;5.30;;;;;;;;;;5091852;28;20104;-48
2021/07/21 07:56:57;;;;;;;10.10;5.72;;;;;;;;;;5086841;28;20111;-48
2021/07/21 07:59:23;;;;;;;10.88;5.75;;;;;;;;;;5093781;28;20333;-48
2021/07/21 08:01:49;;;;;;;10.02;5.53;;;;;;;;;;5069489;28;20024;-48
2021/07/21 08:04:15;;;;;;;9.35;5.93;;;;;;;;;;5096099;28;20028;-49
2021/07/21 08:06:41;;;;;;;6.93;4.93;;;;;;;;;;5091749;28;20020;-48
2021/07/21 08:09:13;;;;;;;14.05;5.93;;;;;;;;;;5072588;28;20475;-48
2021/07/21 08:11:40;;;;;;;8.00;5.20;;;;;;;;;;5085251;28;20027;-48
2021/07/21 08:14:06;;;;;;;8.50;5.40;;;;;;;;;;5072186;28;20490;-51
2021/07/21 08:16:32;;;;;;;8.35;5.50;;;;;;;;;;5092333;28;20036;-48
2021/07/21 08:18:58;;;;;;;6.80;4.88;;;;;;;;;;5095515;28;20070;-48
2021/07/21 08:21:24;;;;;;;7.35;5.03;;;;;;;;;;5095422;28;20020;-48
2021/07/21 08:23:50;;;;;;;7.15;4.90;;;;;;;;;;5086123;28;20031;-48
2021/07/21 08:26:16;;;;;;;8.10;4.65;;;;;;;;;;5095587;28;20479;-48
2021/07/21 08:28:42;;;;;;;8.95;5.25;;;;;;;;;;5095458;28;20067;-48
2021/07/21 08:31:08;;;;;;;9.63;5.00;;;;;;;;;;5095341;28;20085;-48
2021/07/21 08:33:34;;;;;;;7.85;4.82;;;;;;;;;;5095816;28;20081;-48
2021/07/21 08:36:00;;;;;;;6.32;4.28;;;;;;;;;;5092188;28;20035;-48
2021/07/21 08:38:26;;;;;;;7.50;5.10;;;;;;;;;;5094815;28;20028;-50
2021/07/21 08:40:53;;;;;;;8.43;4.72;;;;;;;;;;5092563;28;20424;-48
2021/07/21 08:43:20;;;;;;;7.88;4.47;;;;;;;;;;5095641;28;20523;-48
2021/07/21 08:45:46;;;;;;;7.53;4.88;;;;;;;;;;5071147;28;20044;-50
2021/07/21 08:48:13;;;;;;;9.50;5.00;;;;;;;;;;5093831;28;20477;-48
2021/07/21 08:50:40;;;;;;;6.28;4.68;;;;;;;;;;5095014;28;20016;-48
2021/07/21 08:53:06;;;;;;;8.60;5.45;;;;;;;;;;5095559;28;20024;-48
2021/07/21 08:55:32;;;;;;;6.95;4.82;;;;;;;;;;5095191;28;20038;-48
2021/07/21 08:57:58;;;;;;;6.78;4.90;;;;;;;;;;5089380;28;20083;-48
2021/07/21 09:00:24;;;;;;;9.23;5.00;;;;;;;;;;5094700;28;20028;-48
2021/07/21 09:02:51;;;;;;;9.32;5.32;;;;;;;;;;5092393;28;20042;-48
2021/07/21 09:05:17;;;;;;;9.27;4.90;;;;;;;;;;5095377;28;20036;-49
2021/07/21 09:07:43;;;;;;;6.30;4.47;;;;;;;;;;5073622;28;20425;-48
2021/07/21 09:10:13;;;;;;;6.22;4.10;;;;;;;;;;5088239;28;20044;-48
2021/07/21 09:12:40;;;;;;;6.88;4.13;;;;;;;;;;5080224;28;20025;-49
2021/07/21 09:15:07;;;;;;;6.70;4.40;;;;;;;;;;5073985;28;20028;-48
2021/07/21 09:17:33;;;;;;;6.53;4.20;;;;;;;;;;5094769;28;20476;-48
2021/07/21 09:19:59;;;;;;;6.10;4.20;;;;;;;;;;5094480;28;20110;-50
2021/07/21 09:22:26;;;;;;;7.00;4.13;;;;;;;;;;5087138;28;20079;-48
2021/07/21 09:25:11;;;;;;;6.45;4.32;;;;;;;;;;5093435;28;20566;-49
2021/07/21 09:27:38;;;;;;;7.80;4.65;;;;;;;;;;5093993;28;20059;-48
2021/07/21 09:30:05;;;;;;;7.32;3.78;;;;;;;;;;5094222;28;20031;-48
2021/07/21 09:32:31;;;;;;;5.60;3.05;;;;;;;;;;5077382;28;20028;-48
2021/07/21 09:34:56;;;;;;;7.32;3.03;;;;;;;;;;5094315;28;20365;-50
2021/07/21 09:37:23;;;;;;;4.40;2.70;;;;;;;;;;5092865;28;20032;-48
2021/07/21 09:39:50;;;;;;;7.40;2.80;;;;;;;;;;5091267;28;20417;-48
2021/07/21 09:42:17;;;;;;;3.38;2.10;;;;;;;;;;5094381;28;20043;-48
2021/07/21 09:44:45;;;;;;;6.03;2.47;;;;;;;;;;5088226;28;20077;-49
2021/07/21 09:47:15;;;;;;;4.90;2.80;;;;;;;;;;5094067;28;20023;-48
2021/07/21 09:49:42;;;;;;;4.60;2.60;;;;;;;;;;5093729;28;20095;-48
2021/07/21 09:52:19;;;;;;;4.38;2.70;;;;;;;;;;5080300;28;20035;-48
2021/07/21 09:55:03;;;;;;;4.43;2.22;;;;;;;;;;5082033;28;20035;-50
2021/07/21 09:57:29;;;;;;;3.03;1.98;;;;;;;;;;5061460;28;20074;-49
2021/07/21 09:59:57;;;;;;;3.60;2.25;;;;;;;;;;5088730;28;20028;-48
2021/07/21 10:02:27;;;;;;;7.15;2.78;;;;;;;;;;5093879;28;20460;-51
2021/07/21 10:04:53;;;;;;;2.78;2.15;;;;;;;;;;5089839;28;20500;-49
2021/07/21 10:10:15;;;;;;;4.05;2.13;;;;;;;;;;5086154;28;20109;-50
2021/07/21 10:12:41;;;;;;;4.22;2.00;;;;;;;;;;5070232;28;20032;-48
2021/07/21 10:15:08;;;;;;;3.80;2.03;;;;;;;;;;5073359;28;20107;-48
2021/07/21 10:17:34;;;;;;;12.95;2.35;;;;;;;;;;5093421;28;20486;-48
2021/07/21 10:20:00;;;;;;;5.53;2.17;;;;;;;;;;5091855;28;20371;-49
2021/07/21 10:22:26;;;;;;;3.75;2.03;;;;;;;;;;5084814;28;20360;-49
2021/07/21 10:24:53;;;;;;;2.83;2.00;;;;;;;;;;5092153;28;20031;-50
2021/07/21 10:27:19;;;;;;;5.78;2.03;;;;;;;;;;5093058;28;20043;-52
2021/07/21 10:29:46;;;;;;;3.70;2.03;;;;;;;;;;5079295;28;20024;-50
2021/07/21 10:32:16;;;;;;;2.90;1.75;;;;;;;;;;5093426;28;20461;-48
2021/07/21 10:34:42;;;;;;;2.67;1.92;;;;;;;;;;5093373;28;20035;-50
2021/07/21 10:37:08;;;;;;;4.50;2.30;;;;;;;;;;5091425;28;20024;-48
2021/07/21 10:39:35;;;;;;;7.18;2.42;;;;;;;;;;5089526;28;20111;-50
2021/07/21 10:42:05;;;;;;;4.15;2.03;;;;;;;;;;5093051;28;20024;-49
2021/07/21 10:44:30;;;;;;;6.70;2.17;;;;;;;;;;5092961;28;20115;-50
2021/07/21 10:46:56;;;;;;;3.20;1.75;;;;;;;;;;5093222;28;20458;-48
2021/07/21 10:49:30;;;;;;;3.10;1.95;;;;;;;;;;5092749;28;20028;-48
2021/07/21 10:52:25;;;;;;;4.07;2.08;;;;;;;;;;5093119;28;20036;-49
2021/07/21 10:55:14;;;;;;;3.45;1.70;;;;;;;;;;5093208;28;20035;-48
2021/07/21 11:00:30;;;;;;;2.10;1.50;;;;;;;;;;5093127;28;20038;-48
2021/07/21 11:03:16;;;;;;;2.40;1.67;;;;;;;;;;5091513;28;20153;-48
2021/07/21 11:05:50;;;;;;;2.90;1.60;;;;;;;;;;5093971;28;20420;-53
2021/07/21 11:08:20;;;;;;;2.85;1.67;;;;;;;;;;5065249;28;20104;-52
2021/07/21 11:10:47;;;;;;;2.65;1.67;;;;;;;;;;5086571;28;20031;-50
2021/07/21 11:13:34;;;;;;;2.65;1.70;;;;;;;;;;5074261;28;20044;-53
2021/07/21 11:16:01;;;;;;;2.10;1.52;;;;;;;;;;5072801;28;20475;-50
2021/07/21 11:18:27;;;;;;;2.95;1.38;;;;;;;;;;5092005;28;20028;-53
2021/07/21 11:21:02;;;;;;;2.92;1.75;;;;;;;;;;5067710;28;20021;-51
2021/07/21 11:23:46;;;;;;;3.53;1.63;;;;;;;;;;5075752;28;20107;-53
2021/07/21 11:26:31;;;;;;;2.53;1.80;;;;;;;;;;5090546;28;20032;-49
2021/07/21 11:28:58;;;;;;;2.70;1.40;;;;;;;;;;5083921;28;20067;-51
2021/07/21 11:31:43;;;;;;;2.88;1.50;;;;;;;;;;5092334;28;20032;-50
2021/07/21 11:34:12;;;;;;;3.67;1.80;;;;;;;;;;5092069;28;20100;-50
2021/07/21 11:36:39;;;;;;;2.50;1.88;;;;;;;;;;5090657;28;20360;-51
2021/07/21 11:39:06;;;;;;;2.78;1.55;;;;;;;;;;5088315;28;20016;-50
2021/07/21 11:41:47;;;;;;;2.58;1.70;;;;;;;;;;5092409;28;20020;-50
2021/07/21 11:44:29;;;;;;;4.20;1.92;;;;;;;;;;5092102;28;20582;-50
2021/07/21 11:46:56;;;;;;;3.95;1.92;;;;;;;;;;5091958;28;20123;-50
2021/07/21 11:49:23;;;;;;;2.78;1.50;;;;;;;;;;5091818;28;20085;-50
2021/07/21 11:51:53;;;;;;;6.00;1.83;;;;;;;;;;5091800;28;20039;-50
2021/07/21 11:54:23;;;;;;;2.88;1.83;;;;;;;;;;5092268;28;20048;-50
2021/07/21 11:56:49;;;;;;;7.45;2.00;;;;;;;;;;5085212;28;20115;-50
2021/07/21 11:59:17;;;;;;;5.15;2.35;;;;;;;;;;5091614;28;20058;-51
2021/07/21 12:01:43;;;;;;;3.75;1.95;;;;;;;;;;5091807;28;20030;-51
2021/07/21 12:04:09;;;;;;;3.65;1.92;;;;;;;;;;5092150;28;20426;-51
2021/07/21 12:06:42;;;;;;;3.85;2.00;;;;;;;;;;5075377;28;20012;-50
2021/07/21 12:09:08;;;;;;;;;;;;;;;;;;5069539;28;20113;-51
2021/07/21 12:11:34;;;;;;;3.90;2.20;;;;;;;;;;5081488;28;19908;-50
2021/07/21 12:14:06;;;;;;;6.40;2.30;;;;;;;;;;5068014;28;20025;-50
2021/07/21 12:16:38;;;;;;;4.28;2.42;;;;;;;;;;5088251;28;20031;-50
2021/07/21 12:19:05;;;;;;;3.80;2.35;;;;;;;;;;5091542;28;20060;-51
2021/07/21 12:21:33;;;;;;;4.50;2.20;;;;;;;;;;5091367;28;20028;-51
2021/07/21 12:24:00;;;;;;;9.07;2.72;;;;;;;;;;5083489;28;20470;-51
2021/07/21 12:26:37;;;;;;;5.35;2.63;;;;;;;;;;5091230;28;20471;-50
2021/07/21 12:29:03;;;;;;;4.13;2.30;;;;;;;;;;5089926;28;20023;-50
2021/07/21 12:31:32;;;;;;;5.63;2.65;;;;;;;;;;5091701;28;20107;-49
2021/07/21 12:34:14;;;;;;;4.45;2.97;;;;;;;;;;5091640;28;20020;-50
2021/07/21 12:36:50;;;;;;;4.97;2.78;;;;;;;;;;5079031;28;20024;-52
2021/07/21 12:39:23;;;;;;;7.45;2.47;;;;;;;;;;5088332;28;20021;-54
2021/07/21 12:41:49;;;;;;;4.40;2.53;;;;;;;;;;5087897;28;20029;-52
2021/07/21 12:44:18;;;;;;;5.35;2.72;;;;;;;;;;5090646;28;20637;-50
2021/07/21 12:46:45;;;;;;;6.55;3.13;;;;;;;;;;5095357;28;20094;-50
2021/07/21 12:49:11;;;;;;;5.75;3.00;;;;;;;;;;5094527;28;20463;-50
2021/07/21 12:51:37;;;;;;;3.63;2.45;;;;;;;;;;5092334;28;20093;-50
2021/07/21 12:54:04;;;;;;;4.47;2.88;;;;;;;;;;5093896;28;20120;-50
2021/07/21 12:56:30;;;;;;;9.23;3.80;;;;;;;;;;5095231;28;20103;-50
2021/07/21 12:59:05;;;;;;;8.73;3.17;;;;;;;;;;5094793;28;20028;-50
2021/07/21 13:01:31;;;;;;;5.95;3.00;;;;;;;;;;5095107;28;20035;-50
2021/07/21 13:03:58;;;;;;;4.85;2.85;;;;;;;;;;5095185;28;20020;-50
2021/07/21 13:06:24;;;;;;;4.72;2.95;;;;;;;;;;5094992;28;20032;-51
2021/07/21 13:08:50;;;;;;;7.00;3.40;;;;;;;;;;5067435;28;20159;-52
2021/07/21 13:11:16;;;;;;;5.00;2.83;;;;;;;;;;5083310;28;20446;-51
2021/07/21 13:13:51;;;;;;;5.55;3.65;;;;;;;;;;5069669;28;20052;-50
2021/07/21 13:16:31;;;;;;;5.97;3.10;;;;;;;;;;5089184;28;20031;-51
2021/07/21 13:19:12;;;;;;;5.47;3.20;;;;;;;;;;5094580;28;20376;-51
2021/07/21 13:21:41;;;;;;;5.53;3.08;;;;;;;;;;5087361;28;20029;-50
2021/07/21 13:24:07;;;;;;;5.30;3.35;;;;;;;;;;5079156;28;20459;-50
2021/07/21 13:26:33;;;;;;;8.68;3.20;;;;;;;;;;5088582;28;20024;-54
2021/07/21 13:29:02;;;;;;;5.20;3.35;;;;;;;;;;5086656;28;20088;-50
2021/07/21 13:31:35;;;;;;;6.07;3.45;;;;;;;;;;5091116;28;20020;-50
2021/07/21 13:34:01;;;;;;;6.03;3.58;;;;;;;;;;5088582;28;20020;-50
2021/07/21 13:36:29;;;;;;;5.63;3.17;;;;;;;;;;5093024;28;20034;-50
2021/07/21 13:38:55;;;;;;;6.05;3.90;;;;;;;;;;5090345;28;20020;-50
2021/07/21 13:41:26;;;;;;;6.00;3.50;;;;;;;;;;5094196;28;20020;-53
2021/07/21 13:43:58;;;;;;;7.88;3.28;;;;;;;;;;5081675;28;20464;-51
2021/07/21 13:46:26;;;;;;;11.52;4.00;;;;;;;;;;5094339;28;20486;-50
2021/07/21 13:48:55;;;;;;;7.72;3.70;;;;;;;;;;5093965;28;20028;-51
2021/07/21 13:51:27;;;;;;;8.60;3.97;;;;;;;;;;5094452;28;20081;-50
2021/07/21 13:53:53;;;;;;;6.28;3.88;;;;;;;;;;5093984;28;20028;-51
2021/07/21 13:56:19;;;;;;;7.40;3.95;;;;;;;;;;5093097;28;20482;-52
2021/07/21 13:58:45;;;;;;;8.60;3.95;;;;;;;;;;5093336;28;20416;-51
2021/07/21 14:01:11;;;;;;;6.35;3.13;;;;;;;;;;5093926;28;20035;-54
2021/07/21 14:03:45;;;;;;;9.10;3.65;;;;;;;;;;5093831;28;20028;-50
2021/07/21 14:06:11;;;;;;;6.28;3.72;;;;;;;;;;5082801;28;20040;-51
2021/07/21 14:08:37;;;;;;;7.63;3.75;;;;;;;;;;5065497;28;20044;-50
2021/07/21 14:11:03;;;;;;;5.70;3.47;;;;;;;;;;5082531;28;20457;-50
2021/07/21 14:13:29;;;;;;;5.97;3.47;;;;;;;;;;5073360;28;20029;-51
2021/07/21 14:15:55;;;;;;;10.63;3.72;;;;;;;;;;5085154;28;20024;-51
2021/07/21 14:18:21;;;;;;;5.45;3.50;;;;;;;;;;5079258;28;20103;-52
2021/07/21 14:20:47;;;;;;;5.78;3.55;;;;;;;;;;5093650;28;20124;-51
2021/07/21 14:23:14;;;;;;;6.20;3.28;;;;;;;;;;5083497;28;20055;-51
2021/07/21 14:25:40;;;;;;;8.38;3.70;;;;;;;;;;5093734;28;20012;-52
2021/07/21 14:28:06;;;;;;;4.90;3.22;;;;;;;;;;5092749;28;20016;-51
2021/07/21 14:30:32;;;;;;;7.07;3.70;;;;;;;;;;5093550;28;20324;-50
2021/07/21 14:32:58;;;;;;;7.68;3.72;;;;;;;;;;5093485;28;20031;-50
2021/07/21 14:35:24;;;;;;;5.72;3.40;;;;;;;;;;5092744;28;20507;-51
2021/07/21 14:37:50;;;;;;;6.60;3.25;;;;;;;;;;5091725;28;20166;-50
2021/07/21 14:40:16;;;;;;;6.43;3.72;;;;;;;;;;5090090;28;20031;-50
2021/07/21 14:42:42;;;;;;;7.50;3.90;;;;;;;;;;5087138;28;20467;-50
2021/07/21 14:45:09;;;;;;;7.07;3.83;;;;;;;;;;5085703;28;20016;-50
2021/07/21 14:47:35;;;;;;;5.57;3.25;;;;;;;;;;5081975;28;20150;-50
2021/07/21 14:50:01;;;;;;;5.90;3.60;;;;;;;;;;5092932;28;20027;-52